To NAV CANADA Home Page Login to a new session Search on AWWS site Disclaimer Vers la page française équivalente Tips FAQ What's new on the site To the Forecasts and Observations / NOTAM section To "File a Flight Plan" website Publications and other links Update of the User's profile FIC Telephone Numbers My Weather Data Folder Route Weather Data Regional Weather Data Local Weather Data To the Forecasts and Observations / NOTAM section
Request Generated 07/10/2020 at 12:01:19 UTC . Weather information available at that time is displayed.

METAR/TAF

PETERBOROUGH/ON    (show WxCam)

METAR CYPQ 101100Z AUTO VRB02KT 9SM SCT130 OVC150 23/23 A2989 RMK SLP120 DENSITY ALT 1700FT=
SPECI CYPQ 101029Z AUTO 19003KT 8SM BKN140 BKN160 22/21 A2990 RMK SLP122 DENSITY ALT 1600FT=
SPECI CYPQ 101006Z AUTO VRB02KT 6SM -RA BR BKN120 OVC150 21/21 A2989 RMK PRESRR SLP120 DENSITY ALT 1500FT=
METAR CYPQ 101000Z AUTO 21002KT 6SM BR BKN120 OVC150 21/21 A2989 RMK SLP118 DENSITY ALT 1500FT=
METAR CYPQ 100900Z AUTO 01002KT 8SM BKN150 OVC170 21/21 A2987 RMK SLP113 DENSITY ALT 1500FT=

TAF CYPQ 100938Z 1010/1022 VRB03KT P6SM BKN150
FM101500 15010KT P6SM SCT060
RMK FCST BASED ON AUTO OBS. NXT FCST BY 101400Z=
Your time UTC time
Weather data provided by Environment Canada and NAV CANADA